Time;durP1;ratioP1;P1;durP2;ratioP2;P2;SDS_P1;SDS_P2;PMS_P1;PMS_P2;Temp;Humidity;BMP_temperature;BMP_pressure;BME280_temperature;BME280_humidity;BME280_pressure;Samples;Min_cycle;Max_cycle;Signal;HPM_P1;HPM_P2
2022/06/22 00:02:32;;;;;;;2.67;1.30;;;;;;;;;;7425663;19;20014;-78
2022/06/22 00:05:04;;;;;;;2.42;1.20;;;;;;;;;;7423340;19;20041;-77
2022/06/22 00:07:43;;;;;;;4.15;2.25;;;;;;;;;;7426127;19;20003;-78
2022/06/22 00:10:28;;;;;;;1.98;1.27;;;;;;;;;;7423772;19;20018;-78
2022/06/22 00:12:57;;;;;;;3.42;1.38;;;;;;;;;;7423551;19;20029;-78
2022/06/22 00:15:43;;;;;;;4.72;1.52;;;;;;;;;;7424165;19;20294;-77
2022/06/22 00:18:31;;;;;;;2.28;1.58;;;;;;;;;;7423770;19;20009;-78
2022/06/22 00:21:03;;;;;;;4.45;1.23;;;;;;;;;;7425704;19;20034;-78
2022/06/22 00:23:40;;;;;;;5.18;1.30;;;;;;;;;;7424412;19;20023;-77
2022/06/22 00:26:22;;;;;;;3.63;1.50;;;;;;;;;;7419572;19;20034;-77
2022/06/22 00:29:09;;;;;;;2.08;1.23;;;;;;;;;;7423632;19;20011;-78
2022/06/22 00:32:09;;;;;;;1.08;0.95;;;;;;;;;;7425109;19;20006;-78
2022/06/22 00:34:35;;;;;;;4.47;1.08;;;;;;;;;;7425024;19;20377;-78
2022/06/22 00:37:31;;;;;;;1.25;1.05;;;;;;;;;;7425174;19;20070;-77
2022/06/22 00:40:13;;;;;;;3.38;1.08;;;;;;;;;;7419358;19;20010;-80
2022/06/22 00:42:49;;;;;;;1.98;1.10;;;;;;;;;;7421772;19;20066;-78
2022/06/22 00:45:34;;;;;;;2.40;1.27;;;;;;;;;;7417855;19;20041;-77
2022/06/22 00:48:20;;;;;;;4.03;1.42;;;;;;;;;;7425409;19;20014;-77
2022/06/22 00:50:54;;;;;;;4.03;1.40;;;;;;;;;;7426671;19;20027;-77
2022/06/22 00:53:33;;;;;;;3.95;1.10;;;;;;;;;;7425571;19;20038;-78
2022/06/22 00:56:40;;;;;;;3.03;1.00;;;;;;;;;;7424077;19;20011;-77
2022/06/22 00:59:56;;;;;;;2.97;1.27;;;;;;;;;;7417551;19;20014;-77
2022/06/22 01:02:48;;;;;;;2.22;1.15;;;;;;;;;;7420558;19;20014;-77
2022/06/22 01:05:40;;;;;;;20.63;1.50;;;;;;;;;;7420177;19;20860;-78
2022/06/22 01:08:08;;;;;;;2.05;1.08;;;;;;;;;;7423152;19;20042;-78
2022/06/22 01:10:38;;;;;;;1.35;1.08;;;;;;;;;;7399414;19;20014;-77
2022/06/22 01:13:48;;;;;;;2.13;1.30;;;;;;;;;;7395102;19;20729;-78
2022/06/22 01:16:27;;;;;;;2.33;1.30;;;;;;;;;;7396220;19;20014;-78
2022/06/22 01:19:01;;;;;;;1.50;1.10;;;;;;;;;;7392497;19;20015;-78
2022/06/22 01:21:41;;;;;;;3.25;1.20;;;;;;;;;;7391720;19;20485;-78
2022/06/22 01:24:07;;;;;;;4.47;1.30;;;;;;;;;;7392028;19;20034;-78
2022/06/22 01:26:44;;;;;;;2.40;1.23;;;;;;;;;;7393026;19;20011;-77
2022/06/22 01:29:24;;;;;;;0.90;0.90;;;;;;;;;;7393051;19;20014;-78
2022/06/22 01:32:04;;;;;;;5.60;1.50;;;;;;;;;;7396536;19;20013;-78
2022/06/22 01:34:41;;;;;;;2.20;1.05;;;;;;;;;;7395583;19;20003;-78
2022/06/22 01:37:14;;;;;;;1.50;0.93;;;;;;;;;;7393653;19;20014;-78
2022/06/22 01:39:41;;;;;;;2.85;1.10;;;;;;;;;;7394003;19;20007;-78
2022/06/22 01:42:32;;;;;;;3.33;1.48;;;;;;;;;;7393380;19;20066;-77
2022/06/22 01:45:36;;;;;;;3.20;1.10;;;;;;;;;;7394262;19;20021;-78
2022/06/22 01:48:11;;;;;;;2.13;1.10;;;;;;;;;;7393740;19;20046;-78
2022/06/22 01:50:36;;;;;;;2.33;1.47;;;;;;;;;;7394286;19;20106;-77
2022/06/22 01:53:24;;;;;;;2.53;1.38;;;;;;;;;;7394424;19;20011;-78
2022/06/22 01:56:12;;;;;;;4.10;1.90;;;;;;;;;;7394003;19;20018;-78
2022/06/22 01:59:14;;;;;;;3.38;1.23;;;;;;;;;;7391694;19;20003;-78
2022/06/22 02:01:51;;;;;;;2.05;1.35;;;;;;;;;;7394817;19;20006;-78
2022/06/22 02:04:38;;;;;;;4.47;1.70;;;;;;;;;;7393105;19;20057;-78
2022/06/22 02:07:48;;;;;;;2.35;1.30;;;;;;;;;;7393900;19;20014;-77
2022/06/22 02:10:40;;;;;;;2.13;1.20;;;;;;;;;;7394942;19;20017;-78
2022/06/22 02:13:21;;;;;;;2.80;1.88;;;;;;;;;;7391257;19;20019;-77
2022/06/22 02:16:11;;;;;;;4.10;1.55;;;;;;;;;;7392944;19;20017;-77
2022/06/22 02:18:42;;;;;;;2.00;1.67;;;;;;;;;;7390184;19;20633;-77
2022/06/22 02:21:22;;;;;;;1.90;1.65;;;;;;;;;;7392950;19;20010;-77
2022/06/22 02:24:00;;;;;;;2.40;1.42;;;;;;;;;;7391157;19;20002;-78
2022/06/22 02:26:57;;;;;;;1.98;1.27;;;;;;;;;;7392373;19;20060;-77
2022/06/22 02:29:27;;;;;;;3.72;1.33;;;;;;;;;;7390289;19;20002;-77
2022/06/22 02:31:57;;;;;;;3.78;1.70;;;;;;;;;;7391651;19;20011;-77
2022/06/22 02:34:24;;;;;;;1.40;1.10;;;;;;;;;;7391648;19;20014;-77
2022/06/22 02:36:51;;;;;;;2.22;1.35;;;;;;;;;;7392613;19;20464;-78
2022/06/22 02:39:18;;;;;;;1.40;1.23;;;;;;;;;;7390462;19;20027;-78
2022/06/22 02:44:32;;;;;;;2.53;1.40;;;;;;;;;;7393491;19;20031;-78
2022/06/22 02:47:06;;;;;;;2.05;1.10;;;;;;;;;;7389455;19;20031;-77
2022/06/22 02:49:34;;;;;;;2.47;2.13;;;;;;;;;;7390463;19;20078;-77
2022/06/22 02:52:03;;;;;;;3.60;2.25;;;;;;;;;;7388983;19;20011;-77
2022/06/22 02:54:33;;;;;;;1.55;1.45;;;;;;;;;;7394448;19;19999;-78
2022/06/22 02:57:10;;;;;;;3.63;1.63;;;;;;;;;;7391338;19;20025;-78
2022/06/22 02:59:36;;;;;;;4.95;1.40;;;;;;;;;;7389023;19;20018;-77
2022/06/22 03:02:03;;;;;;;2.95;1.90;;;;;;;;;;7392725;19;20434;-78
2022/06/22 03:04:28;;;;;;;3.15;1.60;;;;;;;;;;7392905;19;20014;-78
2022/06/22 03:06:54;;;;;;;3.15;1.55;;;;;;;;;;7393051;19;20469;-77
2022/06/22 03:09:22;;;;;;;2.17;1.20;;;;;;;;;;7391705;19;20078;-77
2022/06/22 03:11:57;;;;;;;4.80;1.92;;;;;;;;;;7393385;19;20363;-77
2022/06/22 03:14:53;;;;;;;3.00;1.80;;;;;;;;;;7391719;19;20030;-78
2022/06/22 03:17:23;;;;;;;2.25;1.80;;;;;;;;;;7392693;19;20047;-76
2022/06/22 03:19:56;;;;;;;1.60;1.50;;;;;;;;;;7391909;19;20014;-77
2022/06/22 03:22:26;;;;;;;2.00;1.52;;;;;;;;;;7393483;19;20014;-77
2022/06/22 03:24:58;;;;;;;2.33;1.30;;;;;;;;;;7392479;19;20070;-77
2022/06/22 03:27:28;;;;;;;1.75;1.23;;;;;;;;;;7391592;19;20010;-77
2022/06/22 03:30:05;;;;;;;1.90;1.35;;;;;;;;;;7391207;19;20272;-77
2022/06/22 03:32:35;;;;;;;1.95;1.50;;;;;;;;;;7390718;19;20378;-76
2022/06/22 03:35:01;;;;;;;2.42;1.63;;;;;;;;;;7394233;19;20006;-76
2022/06/22 03:37:38;;;;;;;2.58;1.90;;;;;;;;;;7392319;19;20021;-76
2022/06/22 03:40:36;;;;;;;2.40;1.77;;;;;;;;;;7392424;19;20007;-78
2022/06/22 03:43:09;;;;;;;3.95;2.08;;;;;;;;;;7389065;19;20007;-77
2022/06/22 03:45:42;;;;;;;2.05;1.50;;;;;;;;;;7390044;19;20033;-77
2022/06/22 03:48:27;;;;;;;2.58;2.28;;;;;;;;;;7392715;19;20007;-77
2022/06/22 03:51:06;;;;;;;2.35;2.05;;;;;;;;;;7390041;19;20010;-78
2022/06/22 03:53:34;;;;;;;1.63;1.38;;;;;;;;;;7390017;19;20014;-77
2022/06/22 03:56:06;;;;;;;3.45;1.52;;;;;;;;;;7390144;19;20014;-78
2022/06/22 03:58:32;;;;;;;2.25;1.58;;;;;;;;;;7389166;19;20449;-77
2022/06/22 04:00:58;;;;;;;3.28;2.00;;;;;;;;;;7389464;19;20076;-77
2022/06/22 04:03:24;;;;;;;1.73;1.50;;;;;;;;;;7386375;19;20075;-77
2022/06/22 04:05:53;;;;;;;2.83;1.38;;;;;;;;;;7388365;19;20006;-77
2022/06/22 04:08:45;;;;;;;4.30;1.60;;;;;;;;;;7386800;19;20022;-77
2022/06/22 04:11:32;;;;;;;2.08;1.40;;;;;;;;;;7385133;19;20066;-78
2022/06/22 04:14:03;;;;;;;3.78;1.50;;;;;;;;;;7385709;19;20019;-77
2022/06/22 04:16:40;;;;;;;1.60;1.33;;;;;;;;;;7393003;19;20006;-77
2022/06/22 04:19:13;;;;;;;5.10;1.70;;;;;;;;;;7386589;19;20073;-77
2022/06/22 04:21:46;;;;;;;4.70;1.77;;;;;;;;;;7387539;19;20006;-76
2022/06/22 04:24:17;;;;;;;5.65;1.70;;;;;;;;;;7387998;19;20010;-77
2022/06/22 04:27:01;;;;;;;2.78;1.80;;;;;;;;;;7386711;19;20011;-75
2022/06/22 04:29:39;;;;;;;2.83;1.60;;;;;;;;;;7390025;19;20015;-75
2022/06/22 04:32:22;;;;;;;4.72;2.08;;;;;;;;;;7390060;19;20126;-75
2022/06/22 04:34:59;;;;;;;4.43;2.10;;;;;;;;;;7390733;19;20492;-75
2022/06/22 04:37:31;;;;;;;3.15;1.83;;;;;;;;;;7390068;19;20122;-75
2022/06/22 04:40:19;;;;;;;2.55;1.75;;;;;;;;;;7390553;19;20033;-76
2022/06/22 04:42:45;;;;;;;3.30;2.03;;;;;;;;;;7388428;19;20086;-74
2022/06/22 04:45:27;;;;;;;4.05;2.50;;;;;;;;;;7390558;19;20656;-75
2022/06/22 04:47:56;;;;;;;1.60;1.50;;;;;;;;;;7396610;19;20010;-76
2022/06/22 04:50:22;;;;;;;2.45;1.70;;;;;;;;;;7390869;19;20014;-74
2022/06/22 04:52:50;;;;;;;4.82;2.15;;;;;;;;;;7390942;19;20032;-75
2022/06/22 04:55:20;;;;;;;3.80;2.35;;;;;;;;;;7390048;19;20010;-75
2022/06/22 04:57:49;;;;;;;2.00;1.60;;;;;;;;;;7391863;19;20003;-76
2022/06/22 05:00:22;;;;;;;3.42;1.50;;;;;;;;;;7392003;19;20311;-77
2022/06/22 05:02:56;;;;;;;4.97;1.73;;;;;;;;;;7387113;19;20011;-76
2022/06/22 05:05:29;;;;;;;3.13;1.63;;;;;;;;;;7398244;19;20023;-76
2022/06/22 05:08:24;;;;;;;3.30;1.58;;;;;;;;;;7396140;19;20010;-78
2022/06/22 05:10:59;;;;;;;4.13;2.03;;;;;;;;;;7396238;19;20343;-76
2022/06/22 05:13:45;;;;;;;2.47;1.83;;;;;;;;;;7394070;19;20015;-76
2022/06/22 05:16:18;;;;;;;4.25;1.95;;;;;;;;;;7398017;19;20768;-79
2022/06/22 05:18:45;;;;;;;2.28;1.90;;;;;;;;;;7394276;19;20006;-79
2022/06/22 05:21:41;;;;;;;2.88;2.28;;;;;;;;;;7398688;19;20022;-79
2022/06/22 05:24:24;;;;;;;2.28;1.52;;;;;;;;;;7395510;19;20014;-79
2022/06/22 05:26:52;;;;;;;4.35;2.17;;;;;;;;;;7386988;19;21267;-79
2022/06/22 05:29:32;;;;;;;2.28;1.77;;;;;;;;;;7395158;19;20021;-79
2022/06/22 05:32:05;;;;;;;2.72;1.77;;;;;;;;;;7391598;19;20010;-79
2022/06/22 05:34:34;;;;;;;6.10;1.88;;;;;;;;;;7395823;19;20010;-79
2022/06/22 05:37:04;;;;;;;5.68;1.85;;;;;;;;;;7397739;19;20006;-79
2022/06/22 05:39:34;;;;;;;3.60;1.52;;;;;;;;;;7394254;19;20046;-80
2022/06/22 05:42:01;;;;;;;2.17;1.73;;;;;;;;;;7388443;19;20353;-80
2022/06/22 05:44:26;;;;;;;1.92;1.70;;;;;;;;;;7391810;19;20022;-79
2022/06/22 05:46:58;;;;;;;5.70;1.70;;;;;;;;;;7395068;19;20002;-80
2022/06/22 05:50:14;;;;;;;2.70;1.52;;;;;;;;;;7394312;19;20011;-78
2022/06/22 05:52:46;;;;;;;2.05;1.55;;;;;;;;;;7391489;19;20021;-79
2022/06/22 05:55:21;;;;;;;2.90;1.60;;;;;;;;;;7382023;19;20685;-83
2022/06/22 05:57:58;;;;;;;4.00;2.08;;;;;;;;;;7386662;19;20082;-79
2022/06/22 06:00:28;;;;;;;5.38;2.10;;;;;;;;;;7393294;19;20034;-77
2022/06/22 06:02:59;;;;;;;5.07;1.70;;;;;;;;;;7393674;19;20026;-79
2022/06/22 06:05:30;;;;;;;2.75;1.48;;;;;;;;;;7389638;19;20030;-79
2022/06/22 06:07:58;;;;;;;5.10;1.60;;;;;;;;;;7392605;19;20010;-78
2022/06/22 06:10:43;;;;;;;2.90;1.67;;;;;;;;;;7391934;19;20011;-78
2022/06/22 06:13:27;;;;;;;3.72;1.75;;;;;;;;;;7392111;19;20020;-78
2022/06/22 06:15:56;;;;;;;3.95;1.75;;;;;;;;;;7393389;19;20427;-79
2022/06/22 06:18:44;;;;;;;2.22;1.60;;;;;;;;;;7386989;19;20023;-78
2022/06/22 06:21:14;;;;;;;3.03;1.80;;;;;;;;;;7394583;19;20119;-78
2022/06/22 06:23:45;;;;;;;3.33;1.60;;;;;;;;;;7390925;19;20118;-78
2022/06/22 06:29:43;;;;;;;7.32;2.05;;;;;;;;;;7390808;19;20350;-80
2022/06/22 06:32:21;;;;;;;5.43;2.17;;;;;;;;;;7391704;19;20002;-80
2022/06/22 06:35:12;;;;;;;5.18;2.03;;;;;;;;;;7390543;19;20014;-79
2022/06/22 06:37:49;;;;;;;4.57;1.95;;;;;;;;;;7391927;19;20014;-79
2022/06/22 06:40:24;;;;;;;4.07;1.80;;;;;;;;;;7393625;19;20048;-79
2022/06/22 06:42:59;;;;;;;5.38;1.65;;;;;;;;;;7390914;19;20006;-81
2022/06/22 06:45:27;;;;;;;10.07;2.03;;;;;;;;;;7392854;19;20610;-78
2022/06/22 06:47:58;;;;;;;3.92;2.22;;;;;;;;;;7391029;19;20021;-80
2022/06/22 06:50:37;;;;;;;6.53;2.28;;;;;;;;;;7392468;19;20013;-78
2022/06/22 06:53:21;;;;;;;3.00;2.10;;;;;;;;;;7389518;19;20035;-80
2022/06/22 06:55:54;;;;;;;4.95;2.20;;;;;;;;;;7387399;19;20027;-80
2022/06/22 06:58:42;;;;;;;6.30;2.10;;;;;;;;;;7390689;19;20042;-80
2022/06/22 07:01:18;;;;;;;4.97;2.50;;;;;;;;;;7393540;19;20465;-80
2022/06/22 07:03:44;;;;;;;6.75;2.35;;;;;;;;;;7391297;19;20097;-80
2022/06/22 07:06:10;;;;;;;2.83;2.00;;;;;;;;;;7392512;19;20189;-79
2022/06/22 07:08:47;;;;;;;3.42;1.92;;;;;;;;;;7390957;19;20094;-79
2022/06/22 07:11:22;;;;;;;4.78;2.05;;;;;;;;;;7392757;19;20007;-79
2022/06/22 07:13:54;;;;;;;2.70;1.90;;;;;;;;;;7389972;19;20024;-80
2022/06/22 07:16:25;;;;;;;4.15;2.20;;;;;;;;;;7391841;19;20010;-79
2022/06/22 07:18:59;;;;;;;3.25;1.80;;;;;;;;;;7386991;19;20002;-79
2022/06/22 07:22:00;;;;;;;5.82;2.08;;;;;;;;;;7387164;19;20094;-79
2022/06/22 07:24:33;;;;;;;8.00;2.25;;;;;;;;;;7392029;19;20019;-78
2022/06/22 07:27:10;;;;;;;5.95;1.77;;;;;;;;;;7387428;19;20006;-79
2022/06/22 07:29:48;;;;;;;3.67;1.90;;;;;;;;;;7391093;19;20011;-79
2022/06/22 07:32:38;;;;;;;7.70;2.28;;;;;;;;;;7389008;19;20377;-79
2022/06/22 07:35:24;;;;;;;4.18;2.17;;;;;;;;;;7390385;19;20018;-79
2022/06/22 07:38:18;;;;;;;2.38;1.55;;;;;;;;;;7391328;19;20007;-79
2022/06/22 07:43:31;;;;;;;2.53;1.60;;;;;;;;;;7386254;19;20171;-80
2022/06/22 07:45:57;;;;;;;5.00;1.80;;;;;;;;;;7391389;19;20368;-81
2022/06/22 07:48:25;;;;;;;3.05;1.27;;;;;;;;;;7381897;19;20066;-79
2022/06/22 07:50:54;;;;;;;3.22;1.58;;;;;;;;;;7386083;19;19999;-79
2022/06/22 07:53:46;;;;;;;3.00;1.38;;;;;;;;;;7384773;19;20021;-79
2022/06/22 07:56:24;;;;;;;3.55;1.38;;;;;;;;;;7388016;19;20010;-79
2022/06/22 07:58:54;;;;;;;3.88;1.83;;;;;;;;;;7387133;19;20013;-79
2022/06/22 08:01:37;;;;;;;4.53;1.90;;;;;;;;;;7390832;19;20033;-79
2022/06/22 08:04:09;;;;;;;7.45;2.08;;;;;;;;;;7388020;19;20013;-78
2022/06/22 08:06:43;;;;;;;4.32;1.70;;;;;;;;;;7391493;19;20098;-78
2022/06/22 08:09:16;;;;;;;6.63;2.08;;;;;;;;;;7389922;19;20034;-79
2022/06/22 08:12:22;;;;;;;4.13;1.60;;;;;;;;;;7389834;19;20032;-78
2022/06/22 08:14:49;;;;;;;;;;;;;;;;;;7387139;19;20014;-79
2022/06/22 08:17:20;;;;;;;2.25;1.38;;;;;;;;;;7390824;19;19982;-78
2022/06/22 08:19:46;;;;;;;4.90;1.60;;;;;;;;;;7390492;19;20422;-78
2022/06/22 08:22:12;;;;;;;7.22;2.00;;;;;;;;;;7397965;19;20596;-78
2022/06/22 08:24:44;;;;;;;4.05;1.55;;;;;;;;;;7396206;19;20009;-78
2022/06/22 08:27:15;;;;;;;7.25;1.80;;;;;;;;;;7398975;19;20460;-78
2022/06/22 08:29:41;;;;;;;6.80;1.80;;;;;;;;;;7397074;19;20292;-78
2022/06/22 08:32:19;;;;;;;6.95;1.88;;;;;;;;;;7396319;19;20003;-78
2022/06/22 08:34:51;;;;;;;4.93;1.67;;;;;;;;;;7398349;19;20070;-78
2022/06/22 08:37:23;;;;;;;7.38;2.55;;;;;;;;;;7398921;19;20021;-78
2022/06/22 08:39:57;;;;;;;4.68;2.17;;;;;;;;;;7394915;19;19999;-78
2022/06/22 08:42:31;;;;;;;12.25;2.25;;;;;;;;;;7396717;19;20022;-78
2022/06/22 08:45:40;;;;;;;5.93;1.73;;;;;;;;;;7397105;19;20115;-78
2022/06/22 08:48:36;;;;;;;5.32;1.90;;;;;;;;;;7395810;19;20014;-78
2022/06/22 08:51:14;;;;;;;5.70;2.20;;;;;;;;;;7394144;19;22617;-78
2022/06/22 08:53:58;;;;;;;4.90;2.40;;;;;;;;;;7394346;19;20038;-80
2022/06/22 08:56:40;;;;;;;7.38;2.50;;;;;;;;;;7396941;19;20006;-77
2022/06/22 08:59:35;;;;;;;6.68;2.00;;;;;;;;;;7394646;19;20007;-77
2022/06/22 09:02:10;;;;;;;7.37;1.93;;;;;;;;;;7393993;19;20073;-78
2022/06/22 09:04:54;;;;;;;6.90;2.40;;;;;;;;;;7395396;19;20021;-78
2022/06/22 09:07:38;;;;;;;5.72;2.15;;;;;;;;;;7396919;19;20003;-78
2022/06/22 09:10:40;;;;;;;8.98;2.30;;;;;;;;;;7394662;19;20062;-76
2022/06/22 09:13:22;;;;;;;7.35;2.50;;;;;;;;;;7392696;19;20018;-77
2022/06/22 09:16:14;;;;;;;6.90;2.13;;;;;;;;;;7396491;19;20002;-78
2022/06/22 09:19:16;;;;;;;11.40;2.10;;;;;;;;;;7391200;19;20014;-78
2022/06/22 09:22:11;;;;;;;10.75;1.98;;;;;;;;;;7395120;19;20014;-78
2022/06/22 09:24:53;;;;;;;6.45;2.15;;;;;;;;;;7389518;19;20090;-80
2022/06/22 09:27:23;;;;;;;6.38;2.20;;;;;;;;;;7396045;19;20015;-80
2022/06/22 09:29:51;;;;;;;6.50;2.45;;;;;;;;;;7389088;19;20297;-79
2022/06/22 09:33:00;;;;;;;8.88;2.67;;;;;;;;;;7400648;19;20037;-82
2022/06/22 09:35:49;;;;;;;11.18;2.10;;;;;;;;;;7394203;19;20011;-79
2022/06/22 09:38:45;;;;;;;7.90;2.47;;;;;;;;;;7392189;19;20427;-80
2022/06/22 09:41:28;;;;;;;6.22;2.35;;;;;;;;;;7395991;19;19999;-79
2022/06/22 09:44:12;;;;;;;13.32;2.80;;;;;;;;;;7394807;19;20465;-79
2022/06/22 09:46:49;;;;;;;9.05;2.70;;;;;;;;;;7398339;19;20010;-80
2022/06/22 09:49:40;;;;;;;8.85;2.70;;;;;;;;;;7396749;19;20017;-81
2022/06/22 09:52:05;;;;;;;9.02;2.50;;;;;;;;;;7394889;19;20029;-79
2022/06/22 09:58:04;;;;;;;6.20;1.95;;;;;;;;;;7393756;19;20014;-78
2022/06/22 10:01:08;;;;;;;5.22;1.98;;;;;;;;;;7395663;19;20010;-79
2022/06/22 10:03:53;;;;;;;10.85;2.70;;;;;;;;;;7386529;19;20010;-77
2022/06/22 10:06:33;;;;;;;6.80;2.63;;;;;;;;;;7392485;19;20011;-79
2022/06/22 10:09:11;;;;;;;6.80;2.28;;;;;;;;;;7391529;19;20028;-78
2022/06/22 10:12:06;;;;;;;6.22;1.70;;;;;;;;;;7389560;19;20100;-80
2022/06/22 10:14:53;;;;;;;3.85;1.80;;;;;;;;;;7393981;19;20011;-78
2022/06/22 10:17:46;;;;;;;5.65;2.30;;;;;;;;;;7393662;19;20011;-79
2022/06/22 10:20:23;;;;;;;6.95;2.20;;;;;;;;;;7393333;19;20677;-78
2022/06/22 10:23:24;;;;;;;3.90;2.33;;;;;;;;;;7393008;19;20482;-79
2022/06/22 10:26:22;;;;;;;5.20;2.33;;;;;;;;;;7393819;19;20038;-78
2022/06/22 10:29:01;;;;;;;6.82;2.60;;;;;;;;;;7390702;19;20013;-77
2022/06/22 10:31:31;;;;;;;11.13;3.30;;;;;;;;;;7390637;19;20470;-77
2022/06/22 10:34:25;;;;;;;8.07;3.05;;;;;;;;;;7388491;19;20014;-79
2022/06/22 10:37:06;;;;;;;10.50;3.30;;;;;;;;;;7394346;19;20015;-79
2022/06/22 10:39:31;;;;;;;9.93;2.85;;;;;;;;;;7387070;19;20013;-79
2022/06/22 10:45:11;;;;;;;7.60;2.80;;;;;;;;;;7390411;19;20029;-78
2022/06/22 10:47:39;;;;;;;7.10;2.83;;;;;;;;;;7388465;19;20019;-78
2022/06/22 10:50:30;;;;;;;8.13;3.15;;;;;;;;;;7384796;19;20077;-78
2022/06/22 10:53:01;;;;;;;9.57;3.25;;;;;;;;;;7391445;19;20017;-79
2022/06/22 10:55:39;;;;;;;7.95;3.30;;;;;;;;;;7392532;19;20347;-77
2022/06/22 10:58:30;;;;;;;7.57;2.90;;;;;;;;;;7385874;19;20018;-77
2022/06/22 11:01:37;;;;;;;7.90;3.08;;;;;;;;;;7389815;19;20504;-78
2022/06/22 11:04:43;;;;;;;6.70;2.85;;;;;;;;;;7383534;19;20042;-78
2022/06/22 11:07:14;;;;;;;6.47;2.72;;;;;;;;;;7386180;19;20100;-77
2022/06/22 11:10:02;;;;;;;7.43;3.08;;;;;;;;;;7390817;19;20017;-78
2022/06/22 11:12:49;;;;;;;5.65;2.80;;;;;;;;;;7391336;19;20115;-78
2022/06/22 11:15:37;;;;;;;9.85;3.08;;;;;;;;;;7386417;19;20415;-79
2022/06/22 11:18:11;;;;;;;9.38;2.83;;;;;;;;;;7387096;19;20411;-79
2022/06/22 11:21:12;;;;;;;7.32;3.33;;;;;;;;;;7389657;19;20005;-79
2022/06/22 11:24:15;;;;;;;6.60;3.22;;;;;;;;;;7390933;19;20066;-79
2022/06/22 11:33:03;;;;;;;7.53;2.90;;;;;;;;;;7391816;19;20010;-77
2022/06/22 11:35:48;;;;;;;10.02;3.13;;;;;;;;;;7386017;19;20907;-79
2022/06/22 11:38:36;;;;;;;9.57;2.97;;;;;;;;;;7390053;19;20466;-78
2022/06/22 11:41:29;;;;;;;11.50;3.65;;;;;;;;;;7388039;19;20006;-80
2022/06/22 11:44:24;;;;;;;12.07;3.45;;;;;;;;;;7389728;19;20010;-80
2022/06/22 11:46:55;;;;;;;8.40;3.50;;;;;;;;;;7407015;19;20019;-77
2022/06/22 11:49:38;;;;;;;8.20;3.42;;;;;;;;;;7386436;19;20002;-78
2022/06/22 11:52:26;;;;;;;10.63;3.60;;;;;;;;;;7396641;19;20006;-79
2022/06/22 11:55:20;;;;;;;8.95;3.42;;;;;;;;;;7398504;19;20026;-77
2022/06/22 11:58:10;;;;;;;9.73;3.65;;;;;;;;;;7389702;19;20002;-79
2022/06/22 12:01:00;;;;;;;10.35;3.40;;;;;;;;;;7390110;19;20007;-81
2022/06/22 12:04:02;;;;;;;9.25;3.88;;;;;;;;;;7385288;19;20509;-80
2022/06/22 12:06:56;;;;;;;10.88;3.88;;;;;;;;;;7380417;19;20497;-79
2022/06/22 12:09:50;;;;;;;6.63;2.95;;;;;;;;;;7379226;19;20042;-79
2022/06/22 12:12:33;;;;;;;9.70;3.78;;;;;;;;;;7379674;19;20009;-82
2022/06/22 12:15:08;;;;;;;6.68;3.13;;;;;;;;;;7378128;19;20010;-81
2022/06/22 12:18:06;;;;;;;7.32;3.28;;;;;;;;;;7389955;19;20029;-83
2022/06/22 12:20:55;;;;;;;12.30;4.45;;;;;;;;;;7384733;19;20379;-81
2022/06/22 12:23:44;;;;;;;10.02;3.10;;;;;;;;;;7388171;19;20461;-79
2022/06/22 12:26:24;;;;;;;7.40;3.50;;;;;;;;;;7391565;19;20022;-81
2022/06/22 12:28:58;;;;;;;9.18;3.67;;;;;;;;;;7384925;19;20029;-80
2022/06/22 12:31:30;;;;;;;7.40;3.45;;;;;;;;;;7388097;19;20009;-80
2022/06/22 12:34:09;;;;;;;7.75;3.30;;;;;;;;;;7387436;19;20031;-80
2022/06/22 12:36:41;;;;;;;8.55;3.72;;;;;;;;;;7390328;19;20011;-79
2022/06/22 12:39:10;;;;;;;6.32;3.28;;;;;;;;;;7386969;19;20014;-80
2022/06/22 12:42:07;;;;;;;9.05;3.33;;;;;;;;;;7387344;19;20162;-80
2022/06/22 12:45:06;;;;;;;8.75;2.90;;;;;;;;;;7381617;19;20007;-79
2022/06/22 12:48:03;;;;;;;10.32;3.15;;;;;;;;;;7384442;19;20022;-81
2022/06/22 12:51:04;;;;;;;6.00;3.08;;;;;;;;;;7387498;19;20010;-80
2022/06/22 12:53:51;;;;;;;6.68;3.15;;;;;;;;;;7382477;19;20776;-79
2022/06/22 12:56:30;;;;;;;12.60;3.50;;;;;;;;;;7389819;19;20489;-79
2022/06/22 12:59:30;;;;;;;16.70;3.42;;;;;;;;;;7385677;19;20477;-79
2022/06/22 13:01:55;;;;;;;7.22;3.10;;;;;;;;;;7390427;19;20342;-79
2022/06/22 13:04:24;;;;;;;6.30;3.60;;;;;;;;;;7383733;19;20006;-79
2022/06/22 13:06:55;;;;;;;8.75;3.28;;;;;;;;;;7394159;19;20086;-80
2022/06/22 13:09:21;;;;;;;6.75;2.85;;;;;;;;;;7391595;19;20014;-80
2022/06/22 13:11:49;;;;;;;5.53;3.05;;;;;;;;;;7386339;19;20013;-80
2022/06/22 13:14:27;;;;;;;8.90;3.72;;;;;;;;;;7385881;19;20002;-79
2022/06/22 13:17:04;;;;;;;6.25;3.50;;;;;;;;;;7394741;19;20018;-79
2022/06/22 13:20:03;;;;;;;9.10;3.55;;;;;;;;;;7389298;19;20010;-80
2022/06/22 13:22:40;;;;;;;9.15;4.30;;;;;;;;;;7390774;19;20006;-79
2022/06/22 13:25:20;;;;;;;7.60;3.63;;;;;;;;;;7392680;19;20018;-79
2022/06/22 13:28:08;;;;;;;5.65;2.67;;;;;;;;;;7390098;19;20010;-79
2022/06/22 13:31:12;;;;;;;8.73;3.33;;;;;;;;;;7386221;19;20021;-79
2022/06/22 13:33:44;;;;;;;6.28;3.40;;;;;;;;;;7389840;19;20095;-79
2022/06/22 13:36:19;;;;;;;7.05;3.08;;;;;;;;;;7395994;19;20001;-79
2022/06/22 13:38:51;;;;;;;;;;;;;;;;;;7391593;19;20006;-78
2022/06/22 13:41:25;;;;;;;9.32;3.83;;;;;;;;;;7394530;19;19926;-80
2022/06/22 13:44:14;;;;;;;6.65;3.45;;;;;;;;;;7388594;19;20006;-79
2022/06/22 13:47:14;;;;;;;6.85;3.10;;;;;;;;;;7395876;19;20114;-78
2022/06/22 13:50:17;;;;;;;9.77;3.45;;;;;;;;;;7390872;19;20390;-78
2022/06/22 13:52:54;;;;;;;8.75;2.97;;;;;;;;;;7392425;19;20038;-78
2022/06/22 13:55:39;;;;;;;6.57;3.22;;;;;;;;;;7393202;19;20480;-79
2022/06/22 13:58:16;;;;;;;5.53;3.08;;;;;;;;;;7388801;19;20026;-80
2022/06/22 14:01:04;;;;;;;7.60;3.70;;;;;;;;;;7394267;19;20009;-80
2022/06/22 14:03:36;;;;;;;6.07;3.50;;;;;;;;;;7393042;19;20021;-80
2022/06/22 14:06:19;;;;;;;7.72;3.70;;;;;;;;;;7395924;19;20436;-79
2022/06/22 14:08:51;;;;;;;8.38;3.45;;;;;;;;;;7393579;19;20005;-80
2022/06/22 14:11:27;;;;;;;8.00;3.92;;;;;;;;;;7393555;19;20018;-80
2022/06/22 14:13:58;;;;;;;8.25;4.15;;;;;;;;;;7390450;19;20379;-78
2022/06/22 14:16:35;;;;;;;10.02;4.65;;;;;;;;;;7394478;19;20030;-79
2022/06/22 14:19:25;;;;;;;11.30;4.75;;;;;;;;;;7385097;19;20010;-77
2022/06/22 14:21:57;;;;;;;9.63;4.35;;;;;;;;;;7392900;19;20119;-78
2022/06/22 14:24:29;;;;;;;8.38;4.10;;;;;;;;;;7387696;19;20018;-77
2022/06/22 14:27:26;;;;;;;7.88;3.85;;;;;;;;;;7392233;19;20355;-77
2022/06/22 14:30:13;;;;;;;10.70;4.60;;;;;;;;;;7389148;19;20465;-77
2022/06/22 14:32:53;;;;;;;10.43;4.80;;;;;;;;;;7390680;19;20465;-77
2022/06/22 14:35:53;;;;;;;7.95;4.30;;;;;;;;;;7393513;19;20074;-78
2022/06/22 14:38:35;;;;;;;7.03;3.92;;;;;;;;;;7389281;19;20018;-78
2022/06/22 14:41:25;;;;;;;7.53;3.55;;;;;;;;;;7391266;19;20026;-80
2022/06/22 14:43:50;;;;;;;10.07;4.65;;;;;;;;;;7392121;19;20002;-80
2022/06/22 14:46:38;;;;;;;9.88;4.60;;;;;;;;;;7392275;19;20034;-80
2022/06/22 14:49:27;;;;;;;10.45;4.50;;;;;;;;;;7387306;19;20066;-82
2022/06/22 14:51:59;;;;;;;8.18;4.47;;;;;;;;;;7393748;19;20070;-81
2022/06/22 14:54:47;;;;;;;9.20;4.80;;;;;;;;;;7389890;19;20039;-80
2022/06/22 14:57:22;;;;;;;6.85;4.53;;;;;;;;;;7394488;19;20010;-80
2022/06/22 15:00:05;;;;;;;10.25;5.20;;;;;;;;;;7389068;19;20642;-79
2022/06/22 15:02:58;;;;;;;9.77;4.07;;;;;;;;;;7389927;19;20497;-80
2022/06/22 15:05:44;;;;;;;9.75;4.70;;;;;;;;;;7387890;19;20014;-79
2022/06/22 15:08:20;;;;;;;8.77;4.53;;;;;;;;;;7390945;19;20351;-79
2022/06/22 15:14:25;;;;;;;8.65;4.68;;;;;;;;;;7391993;19;20013;-79
2022/06/22 15:16:59;;;;;;;8.73;4.63;;;;;;;;;;7390035;19;20018;-80
2022/06/22 15:19:37;;;;;;;8.65;4.85;;;;;;;;;;7384568;19;20006;-79
2022/06/22 15:22:25;;;;;;;9.75;4.90;;;;;;;;;;7389572;19;20083;-79
2022/06/22 15:25:42;;;;;;;9.32;5.40;;;;;;;;;;7389106;19;20042;-79
2022/06/22 15:28:10;;;;;;;9.85;5.10;;;;;;;;;;7385294;19;20017;-81
2022/06/22 15:30:42;;;;;;;7.20;4.57;;;;;;;;;;7391725;19;20066;-79
2022/06/22 15:33:09;;;;;;;8.93;4.00;;;;;;;;;;7386169;19;20014;-79
2022/06/22 15:35:48;;;;;;;5.70;3.95;;;;;;;;;;7393549;19;20062;-77
2022/06/22 15:38:21;;;;;;;8.30;4.53;;;;;;;;;;7391358;19;20009;-78
2022/06/22 15:41:11;;;;;;;7.03;4.13;;;;;;;;;;7389275;19;20019;-77
2022/06/22 15:43:42;;;;;;;5.50;3.80;;;;;;;;;;7387271;19;20011;-77
2022/06/22 15:46:29;;;;;;;10.82;4.63;;;;;;;;;;7392199;19;20434;-79
2022/06/22 15:49:09;;;;;;;10.80;4.78;;;;;;;;;;7388813;19;20011;-79
2022/06/22 15:51:39;;;;;;;8.98;5.63;;;;;;;;;;7385640;19;19998;-78
2022/06/22 15:54:40;;;;;;;13.15;5.40;;;;;;;;;;7387957;19;20010;-79
2022/06/22 15:57:39;;;;;;;12.27;5.47;;;;;;;;;;7390074;19;20010;-79
2022/06/22 16:00:29;;;;;;;14.93;5.88;;;;;;;;;;7386513;19;20018;-79
2022/06/22 16:03:20;;;;;;;8.48;5.07;;;;;;;;;;7387082;19;20014;-78
2022/06/22 16:06:07;;;;;;;7.53;5.00;;;;;;;;;;7386298;19;20027;-80
2022/06/22 16:08:45;;;;;;;7.47;4.40;;;;;;;;;;7391586;19;20017;-79
2022/06/22 16:14:42;;;;;;;8.40;5.30;;;;;;;;;;7391107;19;20502;-78
2022/06/22 16:17:11;;;;;;;9.25;4.75;;;;;;;;;;7388885;19;20011;-78
2022/06/22 16:20:06;;;;;;;13.68;5.38;;;;;;;;;;7384758;19;20021;-78
2022/06/22 16:22:50;;;;;;;14.13;4.70;;;;;;;;;;7387862;19;20006;-79
2022/06/22 16:25:21;;;;;;;11.93;5.03;;;;;;;;;;7387649;19;20009;-78
2022/06/22 16:28:01;;;;;;;7.82;4.30;;;;;;;;;;7390331;19;20075;-80
2022/06/22 16:31:02;;;;;;;9.55;4.72;;;;;;;;;;7389538;19;20078;-77